sensor_id;sensor_type;location;lat;lon;timestamp;P1;durP1;ratioP1;P2;durP2;ratioP2
9854;SDS011;4966;48.112;9.282;2024-01-15T00:01:40;13.25;;;5.07;;
9854;SDS011;4966;48.112;9.282;2024-01-15T00:04:07;15.05;;;5.30;;
9854;SDS011;4966;48.112;9.282;2024-01-15T00:06:32;17.35;;;5.30;;
9854;SDS011;4966;48.112;9.282;2024-01-15T00:08:58;14.10;;;4.85;;
9854;SDS011;4966;48.112;9.282;2024-01-15T00:11:23;15.45;;;5.53;;
9854;SDS011;4966;48.112;9.282;2024-01-15T00:13:49;13.30;;;4.57;;
9854;SDS011;4966;48.112;9.282;2024-01-15T00:16:14;14.35;;;6.68;;
9854;SDS011;4966;48.112;9.282;2024-01-15T00:18:39;16.30;;;6.15;;
9854;SDS011;4966;48.112;9.282;2024-01-15T00:21:05;20.45;;;6.88;;
9854;SDS011;4966;48.112;9.282;2024-01-15T00:23:30;17.52;;;7.15;;
9854;SDS011;4966;48.112;9.282;2024-01-15T00:25:55;14.88;;;5.15;;
9854;SDS011;4966;48.112;9.282;2024-01-15T00:28:21;19.95;;;5.70;;
9854;SDS011;4966;48.112;9.282;2024-01-15T00:30:46;23.63;;;6.78;;
9854;SDS011;4966;48.112;9.282;2024-01-15T00:33:11;17.65;;;6.35;;
9854;SDS011;4966;48.112;9.282;2024-01-15T00:35:37;21.10;;;7.10;;
9854;SDS011;4966;48.112;9.282;2024-01-15T00:38:02;17.00;;;6.68;;
9854;SDS011;4966;48.112;9.282;2024-01-15T00:40:28;14.80;;;6.20;;
9854;SDS011;4966;48.112;9.282;2024-01-15T00:42:53;17.13;;;6.80;;
9854;SDS011;4966;48.112;9.282;2024-01-15T00:45:18;19.60;;;6.95;;
9854;SDS011;4966;48.112;9.282;2024-01-15T00:47:44;23.80;;;8.82;;
9854;SDS011;4966;48.112;9.282;2024-01-15T00:50:09;21.35;;;6.40;;
9854;SDS011;4966;48.112;9.282;2024-01-15T00:52:35;21.77;;;6.60;;
9854;SDS011;4966;48.112;9.282;2024-01-15T00:55:00;20.15;;;6.82;;
9854;SDS011;4966;48.112;9.282;2024-01-15T00:57:25;13.77;;;5.60;;
9854;SDS011;4966;48.112;9.282;2024-01-15T00:59:50;14.45;;;6.30;;
9854;SDS011;4966;48.112;9.282;2024-01-15T01:02:16;17.88;;;6.50;;
9854;SDS011;4966;48.112;9.282;2024-01-15T01:04:41;14.85;;;5.82;;
9854;SDS011;4966;48.112;9.282;2024-01-15T01:07:06;12.40;;;4.80;;
9854;SDS011;4966;48.112;9.282;2024-01-15T01:09:32;17.83;;;6.30;;
9854;SDS011;4966;48.112;9.282;2024-01-15T01:11:57;18.33;;;5.97;;
9854;SDS011;4966;48.112;9.282;2024-01-15T01:14:23;17.08;;;6.05;;
9854;SDS011;4966;48.112;9.282;2024-01-15T01:16:48;18.10;;;6.85;;
9854;SDS011;4966;48.112;9.282;2024-01-15T01:19:14;15.25;;;5.70;;
9854;SDS011;4966;48.112;9.282;2024-01-15T01:21:39;16.42;;;5.65;;
9854;SDS011;4966;48.112;9.282;2024-01-15T01:24:05;15.45;;;6.47;;
9854;SDS011;4966;48.112;9.282;2024-01-15T01:26:30;14.35;;;5.68;;
9854;SDS011;4966;48.112;9.282;2024-01-15T01:28:56;17.15;;;5.85;;
9854;SDS011;4966;48.112;9.282;2024-01-15T01:31:22;16.75;;;5.88;;
9854;SDS011;4966;48.112;9.282;2024-01-15T01:33:48;14.23;;;5.43;;
9854;SDS011;4966;48.112;9.282;2024-01-15T01:36:14;14.43;;;6.25;;
9854;SDS011;4966;48.112;9.282;2024-01-15T01:38:39;19.35;;;6.25;;
9854;SDS011;4966;48.112;9.282;2024-01-15T01:41:05;18.40;;;6.60;;
9854;SDS011;4966;48.112;9.282;2024-01-15T01:43:30;14.23;;;6.18;;
9854;SDS011;4966;48.112;9.282;2024-01-15T01:45:56;14.48;;;4.88;;
9854;SDS011;4966;48.112;9.282;2024-01-15T01:48:23;10.93;;;4.85;;
9854;SDS011;4966;48.112;9.282;2024-01-15T01:50:50;17.77;;;5.97;;
9854;SDS011;4966;48.112;9.282;2024-01-15T01:53:16;14.98;;;5.68;;
9854;SDS011;4966;48.112;9.282;2024-01-15T01:55:41;14.70;;;5.55;;
9854;SDS011;4966;48.112;9.282;2024-01-15T01:58:07;16.45;;;5.68;;
9854;SDS011;4966;48.112;9.282;2024-01-15T02:00:32;16.17;;;5.95;;
9854;SDS011;4966;48.112;9.282;2024-01-15T02:03:00;16.17;;;6.05;;
9854;SDS011;4966;48.112;9.282;2024-01-15T02:05:25;17.15;;;5.68;;
9854;SDS011;4966;48.112;9.282;2024-01-15T02:07:51;17.58;;;5.63;;
9854;SDS011;4966;48.112;9.282;2024-01-15T02:10:17;20.63;;;5.25;;
9854;SDS011;4966;48.112;9.282;2024-01-15T02:12:42;19.98;;;6.82;;
9854;SDS011;4966;48.112;9.282;2024-01-15T02:15:08;16.80;;;5.13;;
9854;SDS011;4966;48.112;9.282;2024-01-15T02:17:34;15.02;;;5.45;;
9854;SDS011;4966;48.112;9.282;2024-01-15T02:19:59;17.17;;;6.32;;
9854;SDS011;4966;48.112;9.282;2024-01-15T02:22:24;16.77;;;5.38;;
9854;SDS011;4966;48.112;9.282;2024-01-15T02:24:49;13.20;;;5.20;;
9854;SDS011;4966;48.112;9.282;2024-01-15T02:27:15;19.02;;;5.75;;
9854;SDS011;4966;48.112;9.282;2024-01-15T02:29:40;15.93;;;5.75;;
9854;SDS011;4966;48.112;9.282;2024-01-15T02:32:06;14.15;;;5.18;;
9854;SDS011;4966;48.112;9.282;2024-01-15T02:34:33;17.17;;;5.05;;
9854;SDS011;4966;48.112;9.282;2024-01-15T02:36:59;15.90;;;4.93;;
9854;SDS011;4966;48.112;9.282;2024-01-15T02:39:24;14.98;;;5.22;;
9854;SDS011;4966;48.112;9.282;2024-01-15T02:41:49;15.00;;;5.25;;
9854;SDS011;4966;48.112;9.282;2024-01-15T02:44:15;12.02;;;4.28;;
9854;SDS011;4966;48.112;9.282;2024-01-15T02:46:40;15.05;;;5.78;;
9854;SDS011;4966;48.112;9.282;2024-01-15T02:49:05;14.68;;;4.80;;
9854;SDS011;4966;48.112;9.282;2024-01-15T02:51:30;18.15;;;6.05;;
9854;SDS011;4966;48.112;9.282;2024-01-15T02:53:56;17.27;;;5.30;;
9854;SDS011;4966;48.112;9.282;2024-01-15T02:56:21;14.45;;;5.93;;
9854;SDS011;4966;48.112;9.282;2024-01-15T02:58:46;12.95;;;5.22;;
9854;SDS011;4966;48.112;9.282;2024-01-15T03:01:12;15.88;;;4.72;;
9854;SDS011;4966;48.112;9.282;2024-01-15T03:03:37;14.82;;;5.00;;
9854;SDS011;4966;48.112;9.282;2024-01-15T03:06:02;11.02;;;4.20;;
9854;SDS011;4966;48.112;9.282;2024-01-15T03:08:28;17.85;;;5.68;;
9854;SDS011;4966;48.112;9.282;2024-01-15T03:10:54;15.32;;;4.32;;
9854;SDS011;4966;48.112;9.282;2024-01-15T03:13:19;14.73;;;4.80;;
9854;SDS011;4966;48.112;9.282;2024-01-15T03:15:44;15.20;;;4.70;;
9854;SDS011;4966;48.112;9.282;2024-01-15T03:18:10;12.45;;;3.85;;
9854;SDS011;4966;48.112;9.282;2024-01-15T03:20:35;13.93;;;4.65;;
9854;SDS011;4966;48.112;9.282;2024-01-15T03:23:00;15.55;;;5.05;;
9854;SDS011;4966;48.112;9.282;2024-01-15T03:25:26;14.35;;;5.82;;
9854;SDS011;4966;48.112;9.282;2024-01-15T03:27:51;9.90;;;4.35;;
9854;SDS011;4966;48.112;9.282;2024-01-15T03:30:16;15.18;;;5.65;;
9854;SDS011;4966;48.112;9.282;2024-01-15T03:32:42;14.32;;;4.95;;
9854;SDS011;4966;48.112;9.282;2024-01-15T03:35:07;12.73;;;4.97;;
9854;SDS011;4966;48.112;9.282;2024-01-15T03:37:32;13.82;;;4.50;;
9854;SDS011;4966;48.112;9.282;2024-01-15T03:39:58;13.98;;;4.57;;
9854;SDS011;4966;48.112;9.282;2024-01-15T03:42:23;15.63;;;5.10;;
9854;SDS011;4966;48.112;9.282;2024-01-15T03:44:48;12.43;;;4.72;;
9854;SDS011;4966;48.112;9.282;2024-01-15T03:47:13;11.63;;;4.47;;
9854;SDS011;4966;48.112;9.282;2024-01-15T03:49:39;10.23;;;3.83;;
9854;SDS011;4966;48.112;9.282;2024-01-15T03:52:04;17.50;;;5.05;;
9854;SDS011;4966;48.112;9.282;2024-01-15T03:54:30;12.07;;;3.83;;
9854;SDS011;4966;48.112;9.282;2024-01-15T03:56:55;11.20;;;4.38;;
9854;SDS011;4966;48.112;9.282;2024-01-15T03:59:20;16.25;;;5.90;;
9854;SDS011;4966;48.112;9.282;2024-01-15T04:01:49;16.15;;;6.13;;
9854;SDS011;4966;48.112;9.282;2024-01-15T04:06:41;14.38;;;4.53;;
9854;SDS011;4966;48.112;9.282;2024-01-15T04:09:06;12.07;;;4.45;;
9854;SDS011;4966;48.112;9.282;2024-01-15T04:11:31;11.05;;;4.47;;
9854;SDS011;4966;48.112;9.282;2024-01-15T04:13:57;13.15;;;5.07;;
9854;SDS011;4966;48.112;9.282;2024-01-15T04:16:22;12.50;;;4.50;;
9854;SDS011;4966;48.112;9.282;2024-01-15T04:18:47;15.45;;;5.80;;
9854;SDS011;4966;48.112;9.282;2024-01-15T04:21:12;22.90;;;9.38;;
9854;SDS011;4966;48.112;9.282;2024-01-15T04:23:38;20.15;;;6.28;;
9854;SDS011;4966;48.112;9.282;2024-01-15T04:26:04;20.63;;;9.07;;
9854;SDS011;4966;48.112;9.282;2024-01-15T04:28:29;20.63;;;7.15;;
9854;SDS011;4966;48.112;9.282;2024-01-15T04:30:54;17.67;;;5.97;;
9854;SDS011;4966;48.112;9.282;2024-01-15T04:33:20;15.65;;;6.50;;
9854;SDS011;4966;48.112;9.282;2024-01-15T04:35:45;17.88;;;5.75;;
9854;SDS011;4966;48.112;9.282;2024-01-15T04:38:11;14.57;;;5.82;;
9854;SDS011;4966;48.112;9.282;2024-01-15T04:40:36;18.98;;;6.32;;
9854;SDS011;4966;48.112;9.282;2024-01-15T04:43:01;17.35;;;6.43;;
9854;SDS011;4966;48.112;9.282;2024-01-15T04:45:26;14.52;;;5.95;;
9854;SDS011;4966;48.112;9.282;2024-01-15T04:47:55;16.75;;;6.38;;
9854;SDS011;4966;48.112;9.282;2024-01-15T04:50:23;15.95;;;5.60;;
9854;SDS011;4966;48.112;9.282;2024-01-15T04:52:49;16.60;;;5.68;;
9854;SDS011;4966;48.112;9.282;2024-01-15T04:55:15;15.73;;;5.07;;
9854;SDS011;4966;48.112;9.282;2024-01-15T04:57:40;14.88;;;5.22;;
9854;SDS011;4966;48.112;9.282;2024-01-15T05:00:06;13.00;;;5.05;;
9854;SDS011;4966;48.112;9.282;2024-01-15T05:02:31;12.82;;;4.85;;
9854;SDS011;4966;48.112;9.282;2024-01-15T05:04:57;17.70;;;5.55;;
9854;SDS011;4966;48.112;9.282;2024-01-15T05:07:22;14.43;;;5.15;;
9854;SDS011;4966;48.112;9.282;2024-01-15T05:09:47;13.45;;;5.78;;
9854;SDS011;4966;48.112;9.282;2024-01-15T05:12:13;16.00;;;4.78;;
9854;SDS011;4966;48.112;9.282;2024-01-15T05:14:38;15.88;;;6.18;;
9854;SDS011;4966;48.112;9.282;2024-01-15T05:17:04;16.15;;;5.22;;
9854;SDS011;4966;48.112;9.282;2024-01-15T05:19:29;14.18;;;5.13;;
9854;SDS011;4966;48.112;9.282;2024-01-15T05:21:54;15.82;;;5.35;;
9854;SDS011;4966;48.112;9.282;2024-01-15T05:24:19;15.40;;;5.03;;
9854;SDS011;4966;48.112;9.282;2024-01-15T05:26:45;12.40;;;4.18;;
9854;SDS011;4966;48.112;9.282;2024-01-15T05:29:10;14.23;;;5.20;;
9854;SDS011;4966;48.112;9.282;2024-01-15T05:31:35;14.95;;;5.65;;
9854;SDS011;4966;48.112;9.282;2024-01-15T05:34:01;16.30;;;5.45;;
9854;SDS011;4966;48.112;9.282;2024-01-15T05:36:26;10.82;;;4.65;;
9854;SDS011;4966;48.112;9.282;2024-01-15T05:38:51;14.48;;;4.53;;
9854;SDS011;4966;48.112;9.282;2024-01-15T05:41:17;13.45;;;4.80;;
9854;SDS011;4966;48.112;9.282;2024-01-15T05:43:43;12.45;;;4.63;;
9854;SDS011;4966;48.112;9.282;2024-01-15T05:46:08;9.93;;;4.00;;
9854;SDS011;4966;48.112;9.282;2024-01-15T05:48:33;12.98;;;4.30;;
9854;SDS011;4966;48.112;9.282;2024-01-15T05:50:59;12.63;;;4.07;;
9854;SDS011;4966;48.112;9.282;2024-01-15T05:53:24;13.68;;;4.88;;
9854;SDS011;4966;48.112;9.282;2024-01-15T05:55:50;13.32;;;5.00;;
9854;SDS011;4966;48.112;9.282;2024-01-15T05:58:15;16.58;;;4.97;;
9854;SDS011;4966;48.112;9.282;2024-01-15T06:00:40;13.60;;;5.03;;
9854;SDS011;4966;48.112;9.282;2024-01-15T06:03:06;10.70;;;4.78;;
9854;SDS011;4966;48.112;9.282;2024-01-15T06:05:31;13.63;;;4.80;;
9854;SDS011;4966;48.112;9.282;2024-01-15T06:07:56;14.63;;;4.82;;
9854;SDS011;4966;48.112;9.282;2024-01-15T06:10:22;8.93;;;3.65;;
9854;SDS011;4966;48.112;9.282;2024-01-15T06:12:47;10.95;;;3.72;;
9854;SDS011;4966;48.112;9.282;2024-01-15T06:15:13;10.52;;;4.50;;
9854;SDS011;4966;48.112;9.282;2024-01-15T06:17:38;10.07;;;4.20;;
9854;SDS011;4966;48.112;9.282;2024-01-15T06:20:04;9.82;;;3.47;;
9854;SDS011;4966;48.112;9.282;2024-01-15T06:22:30;9.93;;;4.13;;
9854;SDS011;4966;48.112;9.282;2024-01-15T06:24:55;8.50;;;3.58;;
9854;SDS011;4966;48.112;9.282;2024-01-15T06:27:20;9.75;;;2.65;;
9854;SDS011;4966;48.112;9.282;2024-01-15T06:29:46;7.13;;;2.70;;
9854;SDS011;4966;48.112;9.282;2024-01-15T06:32:15;8.80;;;2.90;;
9854;SDS011;4966;48.112;9.282;2024-01-15T06:34:40;10.95;;;4.25;;
9854;SDS011;4966;48.112;9.282;2024-01-15T06:37:05;8.05;;;2.90;;
9854;SDS011;4966;48.112;9.282;2024-01-15T06:39:31;9.93;;;2.95;;
9854;SDS011;4966;48.112;9.282;2024-01-15T06:41:57;10.27;;;3.25;;
9854;SDS011;4966;48.112;9.282;2024-01-15T06:44:22;10.52;;;3.45;;
9854;SDS011;4966;48.112;9.282;2024-01-15T06:46:47;7.65;;;2.88;;
9854;SDS011;4966;48.112;9.282;2024-01-15T06:49:13;7.80;;;3.28;;
9854;SDS011;4966;48.112;9.282;2024-01-15T06:51:38;6.32;;;2.67;;
9854;SDS011;4966;48.112;9.282;2024-01-15T06:54:04;8.27;;;4.03;;
9854;SDS011;4966;48.112;9.282;2024-01-15T06:56:30;7.72;;;2.90;;
9854;SDS011;4966;48.112;9.282;2024-01-15T06:58:56;6.43;;;3.05;;
9854;SDS011;4966;48.112;9.282;2024-01-15T07:01:21;7.28;;;3.50;;
9854;SDS011;4966;48.112;9.282;2024-01-15T07:03:47;5.90;;;2.80;;
9854;SDS011;4966;48.112;9.282;2024-01-15T07:06:12;6.13;;;2.40;;
9854;SDS011;4966;48.112;9.282;2024-01-15T07:08:38;6.13;;;2.55;;
9854;SDS011;4966;48.112;9.282;2024-01-15T07:11:04;6.55;;;2.95;;
9854;SDS011;4966;48.112;9.282;2024-01-15T07:13:30;6.20;;;2.67;;
9854;SDS011;4966;48.112;9.282;2024-01-15T07:15:55;7.70;;;2.55;;
9854;SDS011;4966;48.112;9.282;2024-01-15T07:18:21;5.97;;;2.72;;
9854;SDS011;4966;48.112;9.282;2024-01-15T07:20:46;9.77;;;3.50;;
9854;SDS011;4966;48.112;9.282;2024-01-15T07:23:11;7.38;;;2.90;;
9854;SDS011;4966;48.112;9.282;2024-01-15T07:25:37;9.75;;;3.42;;
9854;SDS011;4966;48.112;9.282;2024-01-15T07:28:02;18.90;;;5.18;;
9854;SDS011;4966;48.112;9.282;2024-01-15T07:30:28;44.38;;;10.82;;
9854;SDS011;4966;48.112;9.282;2024-01-15T07:32:54;19.65;;;6.28;;
9854;SDS011;4966;48.112;9.282;2024-01-15T07:35:19;20.42;;;6.50;;
9854;SDS011;4966;48.112;9.282;2024-01-15T07:37:44;30.10;;;6.57;;
9854;SDS011;4966;48.112;9.282;2024-01-15T07:40:10;20.58;;;7.68;;
9854;SDS011;4966;48.112;9.282;2024-01-15T07:42:35;21.70;;;8.23;;
9854;SDS011;4966;48.112;9.282;2024-01-15T07:45:01;12.77;;;5.78;;
9854;SDS011;4966;48.112;9.282;2024-01-15T07:47:26;12.27;;;4.22;;
9854;SDS011;4966;48.112;9.282;2024-01-15T07:49:52;8.40;;;3.35;;
9854;SDS011;4966;48.112;9.282;2024-01-15T07:52:18;5.95;;;2.80;;
9854;SDS011;4966;48.112;9.282;2024-01-15T07:54:43;6.57;;;3.03;;
9854;SDS011;4966;48.112;9.282;2024-01-15T07:57:09;11.90;;;3.88;;
9854;SDS011;4966;48.112;9.282;2024-01-15T07:59:35;6.80;;;2.95;;
9854;SDS011;4966;48.112;9.282;2024-01-15T08:02:00;5.97;;;2.30;;
9854;SDS011;4966;48.112;9.282;2024-01-15T08:04:26;5.95;;;2.92;;
9854;SDS011;4966;48.112;9.282;2024-01-15T08:06:51;6.53;;;2.85;;
9854;SDS011;4966;48.112;9.282;2024-01-15T08:09:16;5.30;;;2.20;;
9854;SDS011;4966;48.112;9.282;2024-01-15T08:11:42;6.00;;;2.50;;
9854;SDS011;4966;48.112;9.282;2024-01-15T08:14:08;7.18;;;2.63;;
9854;SDS011;4966;48.112;9.282;2024-01-15T08:16:35;4.53;;;2.00;;
9854;SDS011;4966;48.112;9.282;2024-01-15T08:19:00;6.30;;;1.75;;
9854;SDS011;4966;48.112;9.282;2024-01-15T08:21:26;5.40;;;1.83;;
9854;SDS011;4966;48.112;9.282;2024-01-15T08:23:54;2.38;;;1.20;;
9854;SDS011;4966;48.112;9.282;2024-01-15T08:26:20;3.15;;;1.27;;
9854;SDS011;4966;48.112;9.282;2024-01-15T08:28:46;3.80;;;1.23;;
9854;SDS011;4966;48.112;9.282;2024-01-15T08:31:12;3.28;;;0.90;;
9854;SDS011;4966;48.112;9.282;2024-01-15T08:33:38;4.28;;;1.20;;
9854;SDS011;4966;48.112;9.282;2024-01-15T08:36:03;4.22;;;1.00;;
9854;SDS011;4966;48.112;9.282;2024-01-15T08:38:29;2.97;;;1.30;;
9854;SDS011;4966;48.112;9.282;2024-01-15T08:40:54;3.03;;;1.38;;
9854;SDS011;4966;48.112;9.282;2024-01-15T08:43:21;2.95;;;1.48;;
9854;SDS011;4966;48.112;9.282;2024-01-15T08:45:47;3.60;;;1.08;;
9854;SDS011;4966;48.112;9.282;2024-01-15T08:48:13;2.15;;;0.90;;
9854;SDS011;4966;48.112;9.282;2024-01-15T08:50:38;4.00;;;1.95;;
9854;SDS011;4966;48.112;9.282;2024-01-15T08:53:03;3.17;;;1.10;;
9854;SDS011;4966;48.112;9.282;2024-01-15T08:55:29;5.25;;;1.70;;
9854;SDS011;4966;48.112;9.282;2024-01-15T08:57:54;4.07;;;1.92;;
9854;SDS011;4966;48.112;9.282;2024-01-15T09:00:20;4.85;;;1.33;;
9854;SDS011;4966;48.112;9.282;2024-01-15T09:02:45;2.58;;;1.15;;
9854;SDS011;4966;48.112;9.282;2024-01-15T09:05:10;3.65;;;1.10;;
9854;SDS011;4966;48.112;9.282;2024-01-15T09:07:36;2.58;;;1.20;;
9854;SDS011;4966;48.112;9.282;2024-01-15T09:10:01;2.95;;;1.20;;
9854;SDS011;4966;48.112;9.282;2024-01-15T09:12:27;2.00;;;0.85;;
9854;SDS011;4966;48.112;9.282;2024-01-15T09:14:52;2.53;;;1.20;;
9854;SDS011;4966;48.112;9.282;2024-01-15T09:17:18;3.70;;;1.25;;
9854;SDS011;4966;48.112;9.282;2024-01-15T09:19:44;2.72;;;1.25;;
9854;SDS011;4966;48.112;9.282;2024-01-15T09:22:10;2.30;;;1.10;;
9854;SDS011;4966;48.112;9.282;2024-01-15T09:24:39;4.03;;;1.50;;
9854;SDS011;4966;48.112;9.282;2024-01-15T09:27:05;2.80;;;1.10;;
9854;SDS011;4966;48.112;9.282;2024-01-15T09:29:31;6.20;;;1.50;;
9854;SDS011;4966;48.112;9.282;2024-01-15T09:31:56;5.88;;;1.13;;
9854;SDS011;4966;48.112;9.282;2024-01-15T09:34:22;1.90;;;1.00;;
9854;SDS011;4966;48.112;9.282;2024-01-15T09:36:47;3.13;;;1.25;;
9854;SDS011;4966;48.112;9.282;2024-01-15T09:39:13;1.88;;;0.80;;
9854;SDS011;4966;48.112;9.282;2024-01-15T09:41:40;1.73;;;0.93;;
9854;SDS011;4966;48.112;9.282;2024-01-15T09:44:06;1.88;;;0.80;;
9854;SDS011;4966;48.112;9.282;2024-01-15T09:46:35;1.70;;;0.82;;
9854;SDS011;4966;48.112;9.282;2024-01-15T09:49:00;1.95;;;0.70;;
9854;SDS011;4966;48.112;9.282;2024-01-15T09:51:27;2.28;;;1.02;;
9854;SDS011;4966;48.112;9.282;2024-01-15T09:53:56;1.90;;;0.85;;
9854;SDS011;4966;48.112;9.282;2024-01-15T09:56:22;2.38;;;1.02;;
9854;SDS011;4966;48.112;9.282;2024-01-15T09:58:48;2.72;;;1.20;;
9854;SDS011;4966;48.112;9.282;2024-01-15T10:01:14;2.55;;;1.20;;
9854;SDS011;4966;48.112;9.282;2024-01-15T10:03:40;2.25;;;1.00;;
9854;SDS011;4966;48.112;9.282;2024-01-15T10:06:06;3.63;;;1.30;;
9854;SDS011;4966;48.112;9.282;2024-01-15T10:08:33;3.72;;;1.40;;
9854;SDS011;4966;48.112;9.282;2024-01-15T10:11:01;4.22;;;1.75;;
9854;SDS011;4966;48.112;9.282;2024-01-15T10:13:26;5.63;;;2.17;;
9854;SDS011;4966;48.112;9.282;2024-01-15T10:15:53;20.08;;;5.45;;
9854;SDS011;4966;48.112;9.282;2024-01-15T10:18:18;11.23;;;3.97;;
9854;SDS011;4966;48.112;9.282;2024-01-15T10:20:44;3.38;;;1.50;;
9854;SDS011;4966;48.112;9.282;2024-01-15T10:23:10;6.07;;;2.22;;
9854;SDS011;4966;48.112;9.282;2024-01-15T10:25:35;4.65;;;2.28;;
9854;SDS011;4966;48.112;9.282;2024-01-15T10:28:01;5.85;;;1.98;;
9854;SDS011;4966;48.112;9.282;2024-01-15T10:30:28;4.90;;;1.80;;
9854;SDS011;4966;48.112;9.282;2024-01-15T10:33:03;4.50;;;1.73;;
9854;SDS011;4966;48.112;9.282;2024-01-15T10:35:30;4.03;;;1.88;;
9854;SDS011;4966;48.112;9.282;2024-01-15T10:37:57;3.28;;;1.27;;
9854;SDS011;4966;48.112;9.282;2024-01-15T10:40:22;5.28;;;1.85;;
9854;SDS011;4966;48.112;9.282;2024-01-15T10:42:48;3.58;;;1.35;;
9854;SDS011;4966;48.112;9.282;2024-01-15T10:45:13;8.95;;;2.88;;
9854;SDS011;4966;48.112;9.282;2024-01-15T10:47:40;4.20;;;1.83;;
9854;SDS011;4966;48.112;9.282;2024-01-15T10:50:06;5.45;;;2.17;;
9854;SDS011;4966;48.112;9.282;2024-01-15T10:52:33;3.60;;;1.30;;
9854;SDS011;4966;48.112;9.282;2024-01-15T10:55:00;5.40;;;1.30;;
9854;SDS011;4966;48.112;9.282;2024-01-15T10:57:26;3.28;;;1.20;;
9854;SDS011;4966;48.112;9.282;2024-01-15T10:59:51;3.38;;;1.30;;
9854;SDS011;4966;48.112;9.282;2024-01-15T11:02:17;2.80;;;1.08;;
9854;SDS011;4966;48.112;9.282;2024-01-15T11:04:43;8.85;;;1.60;;
9854;SDS011;4966;48.112;9.282;2024-01-15T11:07:08;6.93;;;1.98;;
9854;SDS011;4966;48.112;9.282;2024-01-15T11:09:36;6.28;;;2.17;;
9854;SDS011;4966;48.112;9.282;2024-01-15T11:12:12;4.38;;;1.63;;
9854;SDS011;4966;48.112;9.282;2024-01-15T11:14:42;5.70;;;1.55;;
9854;SDS011;4966;48.112;9.282;2024-01-15T11:17:11;3.72;;;1.83;;
9854;SDS011;4966;48.112;9.282;2024-01-15T11:19:49;4.60;;;1.52;;
9854;SDS011;4966;48.112;9.282;2024-01-15T11:25:17;3.58;;;1.38;;
9854;SDS011;4966;48.112;9.282;2024-01-15T11:27:43;6.25;;;1.52;;
9854;SDS011;4966;48.112;9.282;2024-01-15T11:30:12;4.35;;;1.40;;
9854;SDS011;4966;48.112;9.282;2024-01-15T11:32:38;4.57;;;0.98;;
9854;SDS011;4966;48.112;9.282;2024-01-15T11:35:08;3.08;;;1.38;;
9854;SDS011;4966;48.112;9.282;2024-01-15T11:40:36;2.80;;;0.95;;
9854;SDS011;4966;48.112;9.282;2024-01-15T11:43:04;2.72;;;1.02;;
9854;SDS011;4966;48.112;9.282;2024-01-15T11:45:30;2.75;;;1.02;;
9854;SDS011;4966;48.112;9.282;2024-01-15T11:48:03;3.28;;;1.58;;
9854;SDS011;4966;48.112;9.282;2024-01-15T11:50:39;9.32;;;3.00;;
9854;SDS011;4966;48.112;9.282;2024-01-15T11:55:45;4.43;;;1.85;;
9854;SDS011;4966;48.112;9.282;2024-01-15T11:58:13;2.38;;;1.15;;
9854;SDS011;4966;48.112;9.282;2024-01-15T12:00:46;4.07;;;1.70;;
9854;SDS011;4966;48.112;9.282;2024-01-15T12:03:14;7.15;;;2.30;;
9854;SDS011;4966;48.112;9.282;2024-01-15T12:05:40;8.07;;;3.00;;
9854;SDS011;4966;48.112;9.282;2024-01-15T12:08:06;10.32;;;3.13;;
9854;SDS011;4966;48.112;9.282;2024-01-15T12:10:36;9.05;;;3.10;;
9854;SDS011;4966;48.112;9.282;2024-01-15T12:13:13;4.15;;;1.80;;
9854;SDS011;4966;48.112;9.282;2024-01-15T12:15:39;6.50;;;2.53;;
9854;SDS011;4966;48.112;9.282;2024-01-15T12:18:07;6.95;;;2.22;;
9854;SDS011;4966;48.112;9.282;2024-01-15T12:20:33;5.10;;;2.33;;
9854;SDS011;4966;48.112;9.282;2024-01-15T12:22:59;5.75;;;2.00;;
9854;SDS011;4966;48.112;9.282;2024-01-15T12:25:25;5.50;;;1.80;;
9854;SDS011;4966;48.112;9.282;2024-01-15T12:27:52;7.05;;;3.08;;
9854;SDS011;4966;48.112;9.282;2024-01-15T12:30:18;14.93;;;5.10;;
9854;SDS011;4966;48.112;9.282;2024-01-15T12:32:44;17.65;;;5.28;;
9854;SDS011;4966;48.112;9.282;2024-01-15T12:35:10;22.75;;;6.75;;
9854;SDS011;4966;48.112;9.282;2024-01-15T12:37:36;36.08;;;9.35;;
9854;SDS011;4966;48.112;9.282;2024-01-15T12:40:02;46.20;;;12.32;;
9854;SDS011;4966;48.112;9.282;2024-01-15T12:44:56;41.27;;;11.67;;
9854;SDS011;4966;48.112;9.282;2024-01-15T12:47:22;23.10;;;6.50;;
9854;SDS011;4966;48.112;9.282;2024-01-15T12:49:48;8.05;;;3.20;;
9854;SDS011;4966;48.112;9.282;2024-01-15T12:52:18;12.80;;;3.97;;
9854;SDS011;4966;48.112;9.282;2024-01-15T12:54:44;9.02;;;2.53;;
9854;SDS011;4966;48.112;9.282;2024-01-15T12:57:10;9.75;;;3.28;;
9854;SDS011;4966;48.112;9.282;2024-01-15T12:59:35;5.80;;;2.28;;
9854;SDS011;4966;48.112;9.282;2024-01-15T13:02:00;7.70;;;3.05;;
9854;SDS011;4966;48.112;9.282;2024-01-15T13:04:26;9.90;;;3.22;;
9854;SDS011;4966;48.112;9.282;2024-01-15T13:06:52;2.92;;;1.15;;
9854;SDS011;4966;48.112;9.282;2024-01-15T13:09:18;2.60;;;0.93;;
9854;SDS011;4966;48.112;9.282;2024-01-15T13:11:44;1.65;;;0.70;;
9854;SDS011;4966;48.112;9.282;2024-01-15T13:14:10;2.90;;;0.90;;
9854;SDS011;4966;48.112;9.282;2024-01-15T13:16:36;2.08;;;0.82;;
9854;SDS011;4966;48.112;9.282;2024-01-15T13:19:01;4.10;;;1.23;;
9854;SDS011;4966;48.112;9.282;2024-01-15T13:21:28;3.03;;;1.08;;
9854;SDS011;4966;48.112;9.282;2024-01-15T13:23:54;3.92;;;1.40;;
9854;SDS011;4966;48.112;9.282;2024-01-15T13:26:19;2.53;;;1.27;;
9854;SDS011;4966;48.112;9.282;2024-01-15T13:28:45;2.78;;;1.00;;
9854;SDS011;4966;48.112;9.282;2024-01-15T13:31:10;3.47;;;1.23;;
9854;SDS011;4966;48.112;9.282;2024-01-15T13:33:36;3.22;;;1.33;;
9854;SDS011;4966;48.112;9.282;2024-01-15T13:36:01;6.95;;;1.83;;
9854;SDS011;4966;48.112;9.282;2024-01-15T13:38:27;2.35;;;1.15;;
9854;SDS011;4966;48.112;9.282;2024-01-15T13:40:53;2.92;;;1.13;;
9854;SDS011;4966;48.112;9.282;2024-01-15T13:43:20;1.70;;;0.73;;
9854;SDS011;4966;48.112;9.282;2024-01-15T13:45:45;3.28;;;1.13;;
9854;SDS011;4966;48.112;9.282;2024-01-15T13:48:11;3.72;;;1.65;;
9854;SDS011;4966;48.112;9.282;2024-01-15T13:50:36;2.22;;;1.13;;
9854;SDS011;4966;48.112;9.282;2024-01-15T13:53:02;4.13;;;1.60;;
9854;SDS011;4966;48.112;9.282;2024-01-15T13:55:28;3.65;;;1.50;;
9854;SDS011;4966;48.112;9.282;2024-01-15T13:57:54;4.78;;;2.38;;
9854;SDS011;4966;48.112;9.282;2024-01-15T14:00:20;3.35;;;1.65;;
9854;SDS011;4966;48.112;9.282;2024-01-15T14:02:45;2.47;;;0.98;;
9854;SDS011;4966;48.112;9.282;2024-01-15T14:05:11;3.53;;;1.00;;
9854;SDS011;4966;48.112;9.282;2024-01-15T14:07:37;3.80;;;1.13;;
9854;SDS011;4966;48.112;9.282;2024-01-15T14:10:04;6.13;;;1.33;;
9854;SDS011;4966;48.112;9.282;2024-01-15T14:12:30;7.60;;;2.00;;
9854;SDS011;4966;48.112;9.282;2024-01-15T14:14:56;3.78;;;1.80;;
9854;SDS011;4966;48.112;9.282;2024-01-15T14:17:21;2.42;;;1.00;;
9854;SDS011;4966;48.112;9.282;2024-01-15T14:19:47;5.15;;;1.65;;
9854;SDS011;4966;48.112;9.282;2024-01-15T14:22:12;3.78;;;1.50;;
9854;SDS011;4966;48.112;9.282;2024-01-15T14:24:37;3.50;;;1.10;;
9854;SDS011;4966;48.112;9.282;2024-01-15T14:27:03;5.00;;;1.20;;
9854;SDS011;4966;48.112;9.282;2024-01-15T14:29:30;3.78;;;1.30;;
9854;SDS011;4966;48.112;9.282;2024-01-15T14:31:55;2.47;;;1.13;;
9854;SDS011;4966;48.112;9.282;2024-01-15T14:34:20;2.42;;;0.95;;
9854;SDS011;4966;48.112;9.282;2024-01-15T14:36:48;3.03;;;1.10;;
9854;SDS011;4966;48.112;9.282;2024-01-15T14:39:14;2.85;;;1.17;;
9854;SDS011;4966;48.112;9.282;2024-01-15T14:41:40;3.92;;;1.77;;
9854;SDS011;4966;48.112;9.282;2024-01-15T14:44:05;5.65;;;2.28;;
9854;SDS011;4966;48.112;9.282;2024-01-15T14:46:30;2.40;;;1.02;;
9854;SDS011;4966;48.112;9.282;2024-01-15T14:48:56;2.97;;;1.30;;
9854;SDS011;4966;48.112;9.282;2024-01-15T14:51:21;4.38;;;1.30;;
9854;SDS011;4966;48.112;9.282;2024-01-15T14:53:46;4.53;;;1.60;;
9854;SDS011;4966;48.112;9.282;2024-01-15T14:56:12;3.47;;;1.88;;
9854;SDS011;4966;48.112;9.282;2024-01-15T14:58:46;5.68;;;1.77;;
9854;SDS011;4966;48.112;9.282;2024-01-15T15:01:11;5.82;;;2.70;;
9854;SDS011;4966;48.112;9.282;2024-01-15T15:03:37;4.75;;;1.83;;
9854;SDS011;4966;48.112;9.282;2024-01-15T15:06:03;3.88;;;1.58;;
9854;SDS011;4966;48.112;9.282;2024-01-15T15:08:28;5.65;;;1.73;;
9854;SDS011;4966;48.112;9.282;2024-01-15T15:10:53;5.28;;;2.13;;
9854;SDS011;4966;48.112;9.282;2024-01-15T15:13:19;3.83;;;1.42;;